AirNav   SIMCOM
 
 372 users online  

CO65 Geary Ranch Airport
Westcliffe, Colorado, USA


FAA INFORMATION EFFECTIVE 20 JULY 2017

Location

FAA Identifier: CO65
Lat/Long: 38-02-45.0000N / 105-28-17.0130W
38-02.750000N / 105-28.283550W
38.0458333 / -105.4713925
(estimated)
Elevation: 8300 ft. / 2530 m (estimated)
Variation: 11E (1990)
From city: 1 mile N of WESTCLIFFE, CO
Time zone: UTC -6 (UTC -7 during Standard Time)
Zip code: 81252

Airport Operations

Airport use: Private use. Permission required prior to landing
Activation date: 01/1992
Control tower: no
ARTCC: DENVER CENTER
FSS: DENVER FLIGHT SERVICE STATION
Attendance: UNATNDD
Wind indicator: yes
Segmented circle: no

Airport Services

Fuel available: 100LL

Runway Information

Runway 7/25

Dimensions: 4200 x 30 ft. / 1280 x 9 m
Surface: gravel
RUNWAY 7  RUNWAY 25
Traffic pattern: leftleft
Obstructions: 30 ft. pline, marked, 1000 ft. from runwaynone

Airport Ownership and Management from official FAA records

Ownership: Privately-owned
Owner: WILLIAM SCOTT GEARY
5700 COUNTY ROAD 129
WESTCLIFFE, CO 81252
Phone (719) 371-9331
Manager: SCOTT GEARY
5700 COUNTY ROAD 129
WESTCLIFFE, CO 81252
Phone (719) 371-9331

Airport Operational Statistics

Aircraft based on the field: 1
Single engine airplanes: 1
    

Instrument Procedures

There are no published instrument procedures at CO65.

Some nearby airports with instrument procedures:

1V6 - Fremont County Airport (29 nm NE)
4V1 - Spanish Peaks Airfield (39 nm SE)
KANK - Harriet Alexander Field Airport (40 nm NW)
KALS - San Luis Valley Regional Airport/Bergman Field (41 nm SW)
KMVI - Monte Vista Municipal Airport (41 nm SW)
 
Loc | Ops | Rwys | IFR | FBO | Links
Com | Nav | Svcs | Stats | Notes


 
Area around CO65 (Geary Ranch Airport)
 
Road maps at: MapQuest Bing Google
 
Aerial photo
No photo
 
Sectional chart

 
Airport distance calculator
Flying to Geary Ranch Airport? Find the distance to fly.

From to CO65

Sunrise and sunset
Times for 27-Jul-2017
 Local
(UTC-6)
 Zulu
(UTC)
Morning civil twilight05:3211:32
Sunrise06:0212:02
Sunset20:1502:15
Evening civil twilight20:4502:45

Current date and time
Zulu (UTC)  27-Jul-2017 06:52:21
Local (UTC-6)  27-Jul-2017 00:52:21
 
METAR
K04V 
33nm W 
270630Z AUTO RMK AO2 TSNO PWINO
KANK 
40nm NW 
270635Z AUTO 36007KT 10SM SCT017 BKN026 OVC032 18/13 A3049 RMK AO1 T01800130
KALS 
41nm SW 
270552Z AUTO 12005KT 10SM CLR 16/13 A3036 RMK AO2 SLP179 60040 T01610133 10200 20150 50005
KRCV 
46nm SW 
270635Z AUTO 28008KT 10SM CLR 16/09 A3041 RMK AO2 T01560090
KMYP 
48nm NW 
270629Z AUTO 06011KT OVC001 09/08 A3081 RMK AO2 PWINO
KPUB 
48nm E 
270626Z AUTO 36011KT 10SM OVC033 19/17 A3026 RMK AO2 LTG DSNT N AND NE T01940167
KFCS 
50nm NE 
270632Z AUTO 08004KT 10SM -RA SCT005 BKN016 OVC050 17/17 A3034 RMK AO2 LTG DSNT SE AND SW-W CIG 016V055 BKN V FEW SLP217
TAF
KALS 
41nm SW 
270542Z 2706/2806 11007KT P6SM VCSH SCT060 BKN110 FM271000 VRB06KT P6SM SCT120 BKN200 FM272000 15008KT P6SM VCTS SCT060CB BKN100 FM280200 12010KT P6SM VCSH BKN050
KPUB 
48nm E 
270542Z 2706/2806 VRB06KT P6SM VCTS SCT050CB BKN120 TEMPO 2706/2709 4SM -TSRA BKN030CB FM270900 10008KT P6SM SCT020 OVC040 FM271300 VRB06KT P6SM BKN035 TEMPO 2715/2718 BKN025 FM271900 12011KT P6SM SCT025 BKN050 FM272100 12012KT P6SM SCT050 SCT150 FM272300 12010KT P6SM VCTS SCT040CB BKN200 FM280300 09006KT P6SM BKN035
KFCS 
50nm NE 
270503Z 2705/2811 36009KT 9999 -SHRA VCTS SCT020CB BKN100 QNH3025INS TEMPO 2705/2706 VRB12G18KT 6000 TSRA BKN015CB BECMG 2709/2710 VRB06KT 9999 NSW BKN020 QNH3026INS BECMG 2716/2717 15009KT 9999 VCTS SCT030CB BKN150 QNH3027INS TEMPO 2722/2803 VRB15G25KT -TSRAGS BKN030CB BECMG 2802/2803 16009KT 8000 -SHRA BKN020 QNH3020INS TX25/2721Z TN16/2712Z
NOTAMs
Click for the latest NOTAMs
NOTAMs are issued by the DoD/FAA and will open in a separate window not controlled by AirNav.

 

 
 

Would you like to see your business listed on this page?

 If your business provides an interesting product or service to pilots, flight crews, aircraft, or users of the Geary Ranch Airport, you should consider listing it here.  To start the listing process, click on the button below
 
Add a business
 

Other Pages about Geary Ranch Airport

Update a link
 
Copyright © AirNav, LLC. All rights reserved. Privacy Policy  Contact